createdAt,value
2022-08-27T00:01:59.475Z,15.59
2022-08-27T00:04:28.034Z,15.57
2022-08-27T00:06:56.386Z,15.63
2022-08-27T00:09:27.394Z,15.57
2022-08-27T00:11:57.786Z,15.22
2022-08-27T00:14:26.810Z,15.20
2022-08-27T00:16:56.103Z,15.34
2022-08-27T00:19:24.524Z,15.38
2022-08-27T00:21:53.503Z,15.36
2022-08-27T00:24:22.478Z,15.34
2022-08-27T00:26:54.161Z,15.20
2022-08-27T00:29:23.170Z,15.32
2022-08-27T00:31:52.698Z,15.24
2022-08-27T00:34:22.863Z,15.22
2022-08-27T00:36:51.885Z,15.18
2022-08-27T00:39:20.862Z,15.10
2022-08-27T00:41:49.266Z,15.15
2022-08-27T00:44:17.617Z,15.16
2022-08-27T00:46:51.213Z,15.16
2022-08-27T00:49:28.802Z,15.11
2022-08-27T00:52:01.977Z,15.26
2022-08-27T00:54:30.386Z,15.14
2022-08-27T00:56:58.718Z,14.99
2022-08-27T00:59:29.649Z,15.12
2022-08-27T01:02:16.485Z,14.87
2022-08-27T01:04:59.289Z,15.02
2022-08-27T01:07:28.715Z,15.13
2022-08-27T01:09:59.485Z,15.29
2022-08-27T01:12:28.657Z,15.15
2022-08-27T01:14:56.977Z,14.89
2022-08-27T01:17:25.355Z,14.82
2022-08-27T01:19:59.137Z,14.93
2022-08-27T01:22:44.550Z,15.00
2022-08-27T01:25:14.987Z,14.74
2022-08-27T01:27:44.169Z,14.78
2022-08-27T01:30:14.339Z,14.84
2022-08-27T01:32:43.404Z,14.67
2022-08-27T01:35:12.896Z,14.61
2022-08-27T01:37:42.177Z,14.73
2022-08-27T01:40:13.616Z,14.65
2022-08-27T01:42:46.967Z,14.77
2022-08-27T01:45:20.163Z,14.57
2022-08-27T01:47:48.540Z,14.68
2022-08-27T01:50:23.681Z,14.65
2022-08-27T01:52:52.254Z,14.54
2022-08-27T01:55:23.303Z,14.59
2022-08-27T01:57:52.701Z,14.46
2022-08-27T02:00:26.039Z,14.50
2022-08-27T02:02:56.564Z,14.36
2022-08-27T02:05:25.359Z,14.30
2022-08-27T02:07:54.593Z,14.41
2022-08-27T02:10:26.441Z,14.39
2022-08-27T02:12:55.472Z,14.51
2022-08-27T02:15:24.529Z,14.38
2022-08-27T02:17:52.961Z,14.37
2022-08-27T02:20:21.403Z,14.42
2022-08-27T02:22:50.396Z,14.20
2022-08-27T02:25:21.851Z,14.35
2022-08-27T02:27:50.438Z,14.18
2022-08-27T02:30:24.150Z,14.20
2022-08-27T02:32:53.356Z,14.05
2022-08-27T02:35:23.781Z,14.18
2022-08-27T02:37:52.275Z,14.19
2022-08-27T02:40:21.929Z,14.03
2022-08-27T02:42:50.321Z,13.93
2022-08-27T02:45:18.836Z,13.89
2022-08-27T02:47:47.518Z,13.83
2022-08-27T02:50:16.090Z,13.75
2022-08-27T02:52:46.266Z,13.86
2022-08-27T02:55:17.217Z,13.78
2022-08-27T02:57:45.919Z,13.89
2022-08-27T03:00:16.463Z,13.85
2022-08-27T03:02:45.525Z,13.90
2022-08-27T03:05:14.729Z,13.85
2022-08-27T03:07:43.240Z,13.83
2022-08-27T03:10:13.870Z,13.81
2022-08-27T03:12:42.765Z,13.97
2022-08-27T03:15:14.434Z,13.91
2022-08-27T03:18:01.466Z,13.83
2022-08-27T03:20:30.445Z,13.93
2022-08-27T03:22:58.912Z,13.78
2022-08-27T03:25:27.210Z,13.73
2022-08-27T03:27:55.581Z,13.82
2022-08-27T03:30:24.253Z,13.77
2022-08-27T03:32:52.890Z,13.75
2022-08-27T03:35:21.517Z,13.74
2022-08-27T03:37:49.873Z,13.67
2022-08-27T03:40:19.056Z,13.62
2022-08-27T03:42:49.145Z,13.66
2022-08-27T03:45:18.056Z,13.70
2022-08-27T03:47:46.436Z,13.58
2022-08-27T03:50:14.862Z,13.58
2022-08-27T03:52:43.746Z,13.61
2022-08-27T03:55:13.658Z,13.55
2022-08-27T03:57:42.032Z,13.54
2022-08-27T04:00:13.296Z,13.65
2022-08-27T04:02:42.082Z,13.57
2022-08-27T04:05:11.698Z,13.60
2022-08-27T04:07:40.981Z,13.61
2022-08-27T04:10:10.230Z,13.72
2022-08-27T04:12:38.957Z,13.65
2022-08-27T04:15:07.764Z,13.56
2022-08-27T04:17:36.149Z,13.65
2022-08-27T04:20:31.737Z,13.74
2022-08-27T04:22:53.872Z,13.64
2022-08-27T04:25:22.169Z,13.71
2022-08-27T04:27:50.540Z,13.70
2022-08-27T04:30:19.622Z,13.70
2022-08-27T04:32:48.289Z,13.78
2022-08-27T04:35:17.456Z,13.88
2022-08-27T04:37:45.873Z,13.95
2022-08-27T04:40:14.236Z,13.96
2022-08-27T04:42:42.766Z,14.03
2022-08-27T04:45:11.280Z,14.18
2022-08-27T04:47:39.658Z,14.27
2022-08-27T04:50:08.228Z,14.31
2022-08-27T04:52:40.305Z,14.25
2022-08-27T04:55:10.961Z,14.18
2022-08-27T04:57:39.421Z,14.25
2022-08-27T05:00:10.390Z,14.34
2022-08-27T05:02:38.818Z,14.34
2022-08-27T05:05:07.712Z,14.48
2022-08-27T05:07:36.158Z,14.56
2022-08-27T05:10:05.283Z,14.58
2022-08-27T05:12:33.620Z,14.59
2022-08-27T05:15:02.119Z,14.68
2022-08-27T05:17:32.558Z,14.67
2022-08-27T05:20:01.159Z,14.68
2022-08-27T05:22:29.587Z,14.86
2022-08-27T05:24:58.045Z,14.87
2022-08-27T05:27:26.441Z,14.99
2022-08-27T05:29:54.969Z,15.07
2022-08-27T05:32:23.298Z,15.06
2022-08-27T05:34:51.735Z,15.09
2022-08-27T05:37:20.138Z,15.13
2022-08-27T05:39:48.508Z,15.23
2022-08-27T05:42:18.048Z,15.26
2022-08-27T05:44:46.586Z,15.35
2022-08-27T05:47:15.026Z,15.41
2022-08-27T05:49:44.329Z,15.54
2022-08-27T05:52:12.798Z,15.66
2022-08-27T05:54:43.102Z,15.68
2022-08-27T05:57:11.978Z,15.55
2022-08-27T05:59:59.148Z,15.72
2022-08-27T06:02:28.770Z,15.80
2022-08-27T06:04:57.201Z,15.89
2022-08-27T06:07:25.674Z,16.02
2022-08-27T06:09:54.250Z,16.07
2022-08-27T06:12:27.219Z,16.13
2022-08-27T06:14:57.014Z,16.29
2022-08-27T06:17:26.013Z,16.41
2022-08-27T06:19:55.784Z,16.41
2022-08-27T06:22:24.281Z,16.51
2022-08-27T06:24:52.939Z,16.57
2022-08-27T06:27:22.454Z,16.73
2022-08-27T06:29:51.876Z,16.60
2022-08-27T06:32:21.300Z,16.74
2022-08-27T06:34:50.330Z,16.77
2022-08-27T06:37:19.089Z,16.79
2022-08-27T06:39:47.494Z,16.88
2022-08-27T06:42:16.007Z,16.98
2022-08-27T06:44:49.635Z,17.11
2022-08-27T06:47:18.292Z,17.28
2022-08-27T06:49:49.719Z,17.28
2022-08-27T06:52:18.162Z,17.44
2022-08-27T06:54:46.620Z,17.50
2022-08-27T06:57:15.593Z,17.46
2022-08-27T06:59:44.898Z,17.54
2022-08-27T07:02:13.976Z,17.71
2022-08-27T07:04:42.382Z,17.82
2022-08-27T07:07:11.948Z,17.97
2022-08-27T07:09:40.521Z,18.13
2022-08-27T07:12:08.949Z,18.13
2022-08-27T07:14:38.420Z,18.17
2022-08-27T07:17:11.143Z,18.22
2022-08-27T07:19:44.473Z,18.26
2022-08-27T07:22:13.503Z,18.34
2022-08-27T07:24:42.081Z,18.44
2022-08-27T07:27:10.640Z,18.44
2022-08-27T07:29:39.060Z,18.76
2022-08-27T07:32:07.469Z,18.65
2022-08-27T07:34:36.502Z,18.80
2022-08-27T07:37:05.198Z,18.85
2022-08-27T07:39:33.599Z,19.02
2022-08-27T07:42:20.677Z,19.25
2022-08-27T07:44:50.213Z,19.17
2022-08-27T07:47:18.844Z,19.39
2022-08-27T07:49:47.427Z,19.56
2022-08-27T07:52:17.369Z,19.68
2022-08-27T07:54:47.086Z,19.76
2022-08-27T07:57:15.512Z,19.84
2022-08-27T07:59:45.870Z,19.97
2022-08-27T08:02:16.759Z,19.96
2022-08-27T08:04:46.576Z,20.05
2022-08-27T08:07:14.925Z,20.20
2022-08-27T08:09:43.299Z,20.35
2022-08-27T08:12:11.761Z,20.42
2022-08-27T08:14:40.898Z,20.53
2022-08-27T08:17:10.598Z,20.55
2022-08-27T08:19:40.690Z,20.77
2022-08-27T08:22:09.212Z,20.84
2022-08-27T08:24:37.731Z,21.02
2022-08-27T08:27:07.661Z,21.21
2022-08-27T08:29:37.748Z,21.46
2022-08-27T08:32:07.150Z,21.58
2022-08-27T08:34:36.337Z,21.72
2022-08-27T08:37:05.992Z,21.84
2022-08-27T08:39:35.912Z,21.78
2022-08-27T08:42:05.979Z,21.84
2022-08-27T08:44:40.442Z,21.88
2022-08-27T08:47:20.365Z,22.08
2022-08-27T08:49:51.616Z,22.17
2022-08-27T08:52:38.232Z,22.26
2022-08-27T08:55:28.194Z,22.35
2022-08-27T08:58:29.799Z,22.40
2022-08-27T09:01:00.483Z,22.55
2022-08-27T09:03:29.171Z,22.88
2022-08-27T09:06:03.212Z,23.15
2022-08-27T09:08:43.632Z,23.29
2022-08-27T09:11:18.281Z,23.45
2022-08-27T09:14:18.804Z,23.54
2022-08-27T09:16:47.304Z,23.52
2022-08-27T09:19:15.748Z,23.71
2022-08-27T09:21:44.698Z,23.72
2022-08-27T09:24:33.512Z,23.74
2022-08-27T09:27:01.976Z,23.72
2022-08-27T09:29:30.624Z,23.85
2022-08-27T09:32:05.715Z,23.99
2022-08-27T09:34:37.916Z,24.04
2022-08-27T09:37:11.781Z,24.08
2022-08-27T09:39:40.725Z,24.13
2022-08-27T09:42:10.565Z,24.20
2022-08-27T09:44:52.962Z,24.30
2022-08-27T09:47:22.188Z,24.38
2022-08-27T09:50:02.043Z,24.36
2022-08-27T09:52:38.622Z,24.35
2022-08-27T09:55:08.062Z,24.57
2022-08-27T09:57:39.867Z,24.75
2022-08-27T10:00:13.656Z,25.00
2022-08-27T10:02:53.086Z,24.99
2022-08-27T10:05:33.086Z,25.03
2022-08-27T10:08:03.952Z,25.01
2022-08-27T10:11:01.483Z,25.07
2022-08-27T10:13:43.017Z,25.18
2022-08-27T10:16:31.522Z,25.21
2022-08-27T10:19:04.110Z,25.55
2022-08-27T10:22:19.316Z,25.54
2022-08-27T10:25:10.243Z,25.76
2022-08-27T10:28:00.140Z,25.59
2022-08-27T10:30:54.536Z,25.72
2022-08-27T10:33:39.915Z,25.73
2022-08-27T10:36:17.150Z,25.81
2022-08-27T10:39:02.705Z,25.86
2022-08-27T10:41:49.820Z,25.80
2022-08-27T10:44:36.307Z,25.87
2022-08-27T10:47:24.108Z,25.98
2022-08-27T10:50:06.872Z,26.03
2022-08-27T10:52:51.529Z,26.06
2022-08-27T10:58:51.526Z,26.16
2022-08-27T11:01:33.796Z,26.37
2022-08-27T11:04:07.508Z,26.43
2022-08-27T11:07:06.947Z,26.46
2022-08-27T11:10:15.970Z,26.13
2022-08-27T11:12:52.392Z,26.24
2022-08-27T11:15:33.457Z,26.41
2022-08-27T11:18:34.195Z,26.38
2022-08-27T11:21:20.574Z,26.58
2022-08-27T11:23:56.138Z,26.86
2022-08-27T11:26:24.736Z,26.87
2022-08-27T11:28:59.675Z,26.80
2022-08-27T11:31:33.894Z,26.72
2022-08-27T11:34:10.903Z,26.71
2022-08-27T11:36:58.646Z,26.70
2022-08-27T11:40:02.525Z,26.72
2022-08-27T11:42:50.085Z,26.79
2022-08-27T11:45:25.793Z,26.92
2022-08-27T11:47:59.321Z,26.95
2022-08-27T11:50:29.285Z,26.93
2022-08-27T11:53:08.553Z,27.21
2022-08-27T11:55:38.988Z,27.03
2022-08-27T11:58:21.991Z,27.07
2022-08-27T12:00:50.483Z,27.03
2022-08-27T12:03:21.911Z,27.06
2022-08-27T12:05:59.127Z,27.10
2022-08-27T12:08:32.605Z,27.03
2022-08-27T12:11:03.922Z,27.25
2022-08-27T12:13:52.721Z,27.33
2022-08-27T12:16:50.189Z,27.32
2022-08-27T12:19:57.374Z,27.50
2022-08-27T12:23:26.061Z,27.65
2022-08-27T12:26:02.287Z,27.44
2022-08-27T12:28:33.164Z,27.31
2022-08-27T12:31:01.671Z,27.45
2022-08-27T12:33:35.934Z,27.53
2022-08-27T12:36:37.034Z,27.63
2022-08-27T12:39:06.083Z,27.66
2022-08-27T12:41:44.617Z,27.46
2022-08-27T12:44:27.163Z,27.48
2022-08-27T12:47:11.466Z,27.45
2022-08-27T12:49:53.853Z,27.39
2022-08-27T12:52:36.295Z,27.46
2022-08-27T12:55:05.640Z,27.60
2022-08-27T12:57:43.402Z,27.77
2022-08-27T13:00:19.139Z,27.74
2022-08-27T13:03:22.849Z,27.69
2022-08-27T13:05:51.384Z,27.76
2022-08-27T13:08:38.013Z,27.74
2022-08-27T13:11:19.881Z,27.79
2022-08-27T13:13:52.582Z,27.82
2022-08-27T13:16:21.487Z,27.82
2022-08-27T13:18:51.672Z,27.89
2022-08-27T13:21:28.522Z,27.84
2022-08-27T13:24:11.933Z,28.01
2022-08-27T13:26:49.525Z,27.95
2022-08-27T13:29:18.227Z,28.01
2022-08-27T13:31:51.402Z,28.02
2022-08-27T13:34:35.112Z,28.12
2022-08-27T13:37:30.274Z,27.99
2022-08-27T13:40:00.851Z,28.01
2022-08-27T13:42:31.652Z,28.19
2022-08-27T13:45:04.981Z,28.05
2022-08-27T13:47:42.705Z,27.98
2022-08-27T13:50:27.998Z,27.91
2022-08-27T13:53:29.773Z,28.01
2022-08-27T13:55:59.361Z,27.96
2022-08-27T13:58:30.050Z,27.86
2022-08-27T14:01:15.358Z,27.94
2022-08-27T14:03:58.908Z,27.84
2022-08-27T14:06:47.740Z,27.81
2022-08-27T14:09:27.429Z,27.83
2022-08-27T14:12:06.026Z,27.75
2022-08-27T14:14:57.878Z,27.80
2022-08-27T14:17:29.867Z,27.75
2022-08-27T14:20:02.115Z,27.75
2022-08-27T14:22:31.182Z,27.59
2022-08-27T14:25:00.501Z,27.61
2022-08-27T14:27:30.423Z,27.57
2022-08-27T14:29:59.107Z,27.54
2022-08-27T14:32:27.787Z,27.52
2022-08-27T14:34:56.142Z,27.58
2022-08-27T14:37:24.543Z,27.61
2022-08-27T14:39:54.625Z,27.54
2022-08-27T14:42:24.352Z,27.52
2022-08-27T14:44:57.193Z,27.54
2022-08-27T14:47:27.570Z,27.49
2022-08-27T14:49:57.067Z,27.60
2022-08-27T14:52:25.633Z,27.48
2022-08-27T14:54:54.695Z,27.35
2022-08-27T14:57:23.101Z,27.31
2022-08-27T14:59:51.516Z,27.25
2022-08-27T15:02:21.503Z,27.25
2022-08-27T15:04:50.895Z,27.35
2022-08-27T15:07:22.814Z,27.36
2022-08-27T15:09:52.535Z,27.34
2022-08-27T15:12:26.737Z,27.36
2022-08-27T15:14:55.533Z,27.30
2022-08-27T15:17:34.469Z,27.33
2022-08-27T15:20:08.175Z,27.29
2022-08-27T15:22:37.053Z,27.28
2022-08-27T15:25:10.920Z,27.20
2022-08-27T15:27:40.345Z,27.17
2022-08-27T15:30:11.225Z,27.14
2022-08-27T15:32:48.262Z,27.06
2022-08-27T15:35:20.088Z,27.04
2022-08-27T15:37:51.748Z,27.03
2022-08-27T15:40:21.233Z,26.95
2022-08-27T15:42:53.464Z,26.88
2022-08-27T15:45:21.980Z,26.82
2022-08-27T15:47:56.514Z,26.83
2022-08-27T15:50:25.901Z,26.79
2022-08-27T15:52:58.895Z,26.73
2022-08-27T15:55:32.122Z,26.81
2022-08-27T15:58:02.125Z,26.68
2022-08-27T16:00:32.805Z,26.64
2022-08-27T16:03:07.187Z,26.61
2022-08-27T16:05:36.939Z,26.54
2022-08-27T16:08:06.016Z,26.48
2022-08-27T16:10:34.425Z,26.43
2022-08-27T16:13:02.850Z,26.35
2022-08-27T16:15:39.906Z,26.41
2022-08-27T16:18:09.430Z,26.29
2022-08-27T16:20:37.837Z,26.13
2022-08-27T16:23:06.282Z,26.11
2022-08-27T16:25:35.355Z,26.04
2022-08-27T16:28:05.660Z,25.90
2022-08-27T16:30:34.027Z,25.76
2022-08-27T16:33:02.540Z,25.59
2022-08-27T16:35:32.008Z,25.59
2022-08-27T16:38:00.701Z,25.59
2022-08-27T16:40:30.124Z,25.53
2022-08-27T16:43:00.452Z,25.41
2022-08-27T16:45:29.076Z,25.34
2022-08-27T16:48:17.010Z,25.24
2022-08-27T16:50:45.937Z,25.15
2022-08-27T16:53:15.072Z,25.08
2022-08-27T16:55:45.613Z,25.07
2022-08-27T16:58:22.468Z,25.00
2022-08-27T17:00:54.472Z,24.90
2022-08-27T17:03:23.333Z,24.84
2022-08-27T17:05:52.795Z,24.83
2022-08-27T17:08:26.855Z,24.72
2022-08-27T17:10:55.929Z,24.67
2022-08-27T17:13:28.365Z,24.47
2022-08-27T17:15:58.349Z,24.55
2022-08-27T17:18:27.979Z,24.52
2022-08-27T17:20:58.292Z,24.44
2022-08-27T17:23:38.545Z,24.40
2022-08-27T17:26:09.362Z,24.34
2022-08-27T17:28:40.029Z,24.17
2022-08-27T17:31:09.578Z,24.13
2022-08-27T17:33:41.100Z,24.04
2022-08-27T17:36:09.978Z,24.00
2022-08-27T17:38:39.381Z,23.95
2022-08-27T17:41:33.915Z,23.85
2022-08-27T17:44:22.922Z,23.79
2022-08-27T17:46:52.162Z,23.77
2022-08-27T17:49:20.986Z,23.60
2022-08-27T17:51:50.878Z,23.50
2022-08-27T17:54:54.592Z,23.30
2022-08-27T17:57:40.685Z,23.33
2022-08-27T18:00:12.116Z,23.36
2022-08-27T18:02:44.452Z,23.28
2022-08-27T18:05:13.772Z,23.20
2022-08-27T18:07:43.081Z,23.14
2022-08-27T18:10:16.007Z,22.96
2022-08-27T18:12:45.738Z,22.97
2022-08-27T18:15:28.102Z,23.05
2022-08-27T18:17:59.358Z,22.97
2022-08-27T18:20:36.788Z,22.87
2022-08-27T18:23:10.752Z,22.87
2022-08-27T18:25:41.221Z,22.86
2022-08-27T18:28:11.281Z,22.79
2022-08-27T18:30:44.775Z,22.71
2022-08-27T18:33:14.120Z,22.67
2022-08-27T18:35:42.926Z,22.65
2022-08-27T18:41:34.116Z,22.66
2022-08-27T18:44:15.382Z,22.57
2022-08-27T18:46:54.019Z,22.57
2022-08-27T18:49:28.347Z,22.56
2022-08-27T18:51:59.563Z,22.44
2022-08-27T18:54:41.902Z,22.30
2022-08-27T18:57:10.310Z,22.43
2022-08-27T18:59:41.383Z,22.37
2022-08-27T19:02:19.157Z,22.35
2022-08-27T19:04:50.957Z,22.31
2022-08-27T19:07:19.979Z,22.13
2022-08-27T19:09:51.821Z,21.95
2022-08-27T19:12:22.248Z,21.89
2022-08-27T19:14:56.256Z,21.68
2022-08-27T19:17:34.406Z,21.69
2022-08-27T19:20:11.130Z,21.68
2022-08-27T19:22:41.313Z,21.58
2022-08-27T19:25:12.104Z,21.48
2022-08-27T19:28:15.396Z,21.46
2022-08-27T19:31:03.175Z,21.36
2022-08-27T19:33:38.417Z,21.29
2022-08-27T19:36:15.600Z,21.20
2022-08-27T19:38:45.956Z,21.33
2022-08-27T19:41:29.767Z,21.12
2022-08-27T19:44:07.562Z,21.06
2022-08-27T19:49:34.571Z,21.11
2022-08-27T19:52:10.907Z,21.34
2022-08-27T19:54:56.922Z,21.29
2022-08-27T19:57:32.554Z,21.42
2022-08-27T20:00:07.737Z,21.33
2022-08-27T20:03:00.616Z,21.04
2022-08-27T20:05:29.259Z,20.82
2022-08-27T20:08:04.225Z,20.90
2022-08-27T20:10:44.255Z,20.82
2022-08-27T20:13:21.495Z,20.44
2022-08-27T20:16:05.063Z,20.66
2022-08-27T20:18:40.193Z,20.77
2022-08-27T20:21:11.598Z,20.21
2022-08-27T20:23:42.189Z,20.04
2022-08-27T20:26:14.866Z,20.48
2022-08-27T20:28:46.287Z,20.61
2022-08-27T20:31:15.913Z,20.61
2022-08-27T20:33:45.904Z,20.57
2022-08-27T20:36:14.498Z,20.50
2022-08-27T20:38:44.210Z,20.52
2022-08-27T20:41:16.742Z,20.02
2022-08-27T20:43:45.458Z,20.15
2022-08-27T20:46:22.535Z,19.92
2022-08-27T20:48:51.212Z,19.59
2022-08-27T20:51:19.843Z,19.45
2022-08-27T20:53:48.310Z,19.61
2022-08-27T20:56:16.674Z,19.63
2022-08-27T20:59:03.356Z,19.50
2022-08-27T21:01:32.259Z,19.89
2022-08-27T21:04:00.733Z,19.82
2022-08-27T21:06:33.295Z,19.65
2022-08-27T21:09:01.941Z,19.51
2022-08-27T21:11:30.457Z,19.20
2022-08-27T21:13:59.774Z,19.09
2022-08-27T21:16:29.197Z,19.28
2022-08-27T21:18:57.754Z,19.11
2022-08-27T21:21:28.827Z,19.38
2022-08-27T21:23:57.149Z,19.35
2022-08-27T21:26:25.776Z,19.48
2022-08-27T21:28:55.715Z,19.51
2022-08-27T21:31:25.377Z,19.22
2022-08-27T21:33:55.256Z,19.04
2022-08-27T21:36:23.693Z,19.08
2022-08-27T21:38:52.141Z,18.81
2022-08-27T21:41:21.104Z,18.73
2022-08-27T21:43:50.564Z,18.68
2022-08-27T21:46:20.254Z,18.70
2022-08-27T21:48:52.594Z,18.59
2022-08-27T21:51:27.313Z,18.75
2022-08-27T21:53:55.925Z,18.59
2022-08-27T21:56:25.236Z,18.50
2022-08-27T21:58:53.633Z,18.48
2022-08-27T22:01:22.055Z,18.49
2022-08-27T22:03:51.203Z,18.71
2022-08-27T22:06:19.747Z,18.81
2022-08-27T22:08:48.485Z,18.83
2022-08-27T22:11:21.940Z,18.52
2022-08-27T22:13:53.064Z,18.49
2022-08-27T22:16:22.112Z,18.56
2022-08-27T22:18:54.734Z,18.42
2022-08-27T22:21:24.471Z,18.56
2022-08-27T22:23:53.063Z,18.69
2022-08-27T22:26:22.017Z,18.52
2022-08-27T22:28:51.334Z,18.52
2022-08-27T22:31:19.882Z,18.55
2022-08-27T22:33:48.494Z,18.43
2022-08-27T22:36:16.800Z,18.49
2022-08-27T22:38:47.712Z,18.36
2022-08-27T22:41:18.445Z,18.35
2022-08-27T22:43:47.053Z,18.12
2022-08-27T22:46:16.072Z,17.99
2022-08-27T22:48:44.497Z,18.12
2022-08-27T22:51:12.783Z,18.05
2022-08-27T22:53:41.183Z,18.24
2022-08-27T22:56:10.128Z,18.21
2022-08-27T22:58:38.624Z,18.23
2022-08-27T23:01:07.948Z,18.09
2022-08-27T23:03:36.400Z,18.06
2022-08-27T23:06:04.839Z,18.09
2022-08-27T23:08:33.769Z,17.83
2022-08-27T23:11:03.748Z,17.97
2022-08-27T23:13:32.280Z,17.86
2022-08-27T23:16:02.145Z,17.82
2022-08-27T23:18:31.107Z,17.99
2022-08-27T23:20:59.632Z,17.95
2022-08-27T23:23:30.642Z,18.00
2022-08-27T23:26:17.717Z,17.81
2022-08-27T23:28:47.279Z,17.72
2022-08-27T23:31:15.646Z,17.67
2022-08-27T23:33:46.784Z,17.69
2022-08-27T23:36:15.040Z,17.55
2022-08-27T23:38:43.343Z,17.69
2022-08-27T23:41:11.964Z,17.76
2022-08-27T23:43:40.767Z,17.59
2022-08-27T23:46:09.491Z,17.43
2022-08-27T23:48:40.213Z,17.21
2022-08-27T23:51:09.891Z,17.42
2022-08-27T23:53:38.358Z,17.49
2022-08-27T23:56:06.859Z,17.32
2022-08-27T23:58:36.608Z,17.50
